createdAt,value
2019-05-23T00:01:12.669Z,14.97
2019-05-23T00:04:15.111Z,14.89
2019-05-23T00:07:07.291Z,14.80
2019-05-23T00:09:59.107Z,14.81
2019-05-23T00:12:50.098Z,14.80
2019-05-23T00:15:38.263Z,14.74
2019-05-23T00:18:09.711Z,14.81
2019-05-23T00:20:41.223Z,14.68
2019-05-23T00:23:13.980Z,14.89
2019-05-23T00:25:45.430Z,14.96
2019-05-23T00:28:16.870Z,15.03
2019-05-23T00:30:54.448Z,15.05
2019-05-23T00:33:28.007Z,15.12
2019-05-23T00:36:02.383Z,15.17
2019-05-23T00:38:34.706Z,15.17
2019-05-23T00:41:08.021Z,15.12
2019-05-23T00:43:41.131Z,15.08
2019-05-23T00:46:12.171Z,14.91
2019-05-23T00:48:44.617Z,14.71
2019-05-23T00:51:16.721Z,14.53
2019-05-23T00:53:49.028Z,14.36
2019-05-23T00:56:22.133Z,14.38
2019-05-23T00:58:54.211Z,14.34
2019-05-23T01:01:27.082Z,14.25
2019-05-23T01:03:59.052Z,14.14
2019-05-23T01:06:30.902Z,14.07
2019-05-23T01:09:03.364Z,14.03
2019-05-23T01:11:34.988Z,14.04
2019-05-23T01:14:07.256Z,13.91
2019-05-23T01:16:39.548Z,13.84
2019-05-23T01:19:11.197Z,13.84
2019-05-23T01:22:00.688Z,13.90
2019-05-23T01:24:35.366Z,13.90
2019-05-23T01:27:07.411Z,13.89
2019-05-23T01:29:43.286Z,13.74
2019-05-23T01:32:31.707Z,13.66
2019-05-23T01:35:03.788Z,13.68
2019-05-23T01:37:34.786Z,13.64
2019-05-23T01:40:07.299Z,13.53
2019-05-23T01:42:38.581Z,13.51
2019-05-23T01:45:12.016Z,13.52
2019-05-23T01:47:43.839Z,13.55
2019-05-23T01:50:15.983Z,13.48
2019-05-23T01:52:47.853Z,13.53
2019-05-23T01:55:20.190Z,13.53
2019-05-23T01:57:52.597Z,13.48
2019-05-23T02:00:27.996Z,13.39
2019-05-23T02:02:59.344Z,13.35
2019-05-23T02:05:31.133Z,13.33
2019-05-23T02:08:03.016Z,13.21
2019-05-23T02:10:35.469Z,13.16
2019-05-23T02:13:07.174Z,13.13
2019-05-23T02:15:39.041Z,13.03
2019-05-23T02:18:11.579Z,12.97
2019-05-23T02:20:42.610Z,12.88
2019-05-23T02:23:14.950Z,12.83
2019-05-23T02:25:45.925Z,12.91
2019-05-23T02:28:17.596Z,12.95
2019-05-23T02:30:48.656Z,12.96
2019-05-23T02:33:20.154Z,12.93
2019-05-23T02:35:51.520Z,12.98
2019-05-23T02:38:39.773Z,12.96
2019-05-23T02:41:21.610Z,12.97
2019-05-23T02:43:56.960Z,12.93
2019-05-23T02:46:38.279Z,12.91
2019-05-23T02:49:11.269Z,12.99
2019-05-23T02:51:43.660Z,12.96
2019-05-23T02:54:16.121Z,12.98
2019-05-23T02:56:47.929Z,12.91
2019-05-23T02:59:28.508Z,12.94
2019-05-23T03:02:39.926Z,12.79
2019-05-23T03:05:14.396Z,12.76
2019-05-23T03:07:46.357Z,12.51
2019-05-23T03:10:19.043Z,12.49
2019-05-23T03:12:53.238Z,12.48
2019-05-23T03:15:27.408Z,12.58
2019-05-23T03:18:01.889Z,12.38
2019-05-23T03:20:34.434Z,12.49
2019-05-23T03:23:14.035Z,12.39
2019-05-23T03:26:27.056Z,12.28
2019-05-23T03:28:58.207Z,12.21
2019-05-23T03:31:46.902Z,12.15
2019-05-23T03:34:19.767Z,12.26
2019-05-23T03:36:51.545Z,12.24
2019-05-23T03:39:23.299Z,12.39
2019-05-23T03:41:56.366Z,12.49
2019-05-23T03:44:29.220Z,12.48
2019-05-23T03:47:01.831Z,12.54
2019-05-23T03:49:34.394Z,12.62
2019-05-23T03:52:06.147Z,12.64
2019-05-23T03:54:37.394Z,12.61
2019-05-23T03:57:08.957Z,12.64
2019-05-23T03:59:42.161Z,12.76
2019-05-23T04:02:15.750Z,12.90
2019-05-23T04:04:48.071Z,13.09
2019-05-23T04:07:19.688Z,13.18
2019-05-23T04:09:51.466Z,13.29
2019-05-23T04:12:22.727Z,13.41
2019-05-23T04:14:54.185Z,13.51
2019-05-23T04:17:25.283Z,13.56
2019-05-23T04:19:56.244Z,13.61
2019-05-23T04:22:27.404Z,13.73
2019-05-23T04:25:01.919Z,13.89
2019-05-23T04:27:31.566Z,14.02
2019-05-23T04:30:02.754Z,14.15
2019-05-23T04:32:34.891Z,14.40
2019-05-23T04:35:06.197Z,14.50
2019-05-23T04:37:37.548Z,14.69
2019-05-23T04:40:10.220Z,15.11
2019-05-23T04:42:41.366Z,15.11
2019-05-23T04:45:12.831Z,15.49
2019-05-23T04:47:44.130Z,15.49
2019-05-23T04:50:16.388Z,15.67
2019-05-23T04:52:49.021Z,15.78
2019-05-23T04:55:21.455Z,15.91
2019-05-23T04:57:52.956Z,16.02
2019-05-23T05:00:24.951Z,16.19
2019-05-23T05:02:56.816Z,15.98
2019-05-23T05:05:28.851Z,16.09
2019-05-23T05:08:00.300Z,16.38
2019-05-23T05:10:32.858Z,16.38
2019-05-23T05:13:05.087Z,16.43
2019-05-23T05:15:36.639Z,16.68
2019-05-23T05:18:08.806Z,17.13
2019-05-23T05:20:39.916Z,17.57
2019-05-23T05:23:11.030Z,18.32
2019-05-23T05:25:42.225Z,19.15
2019-05-23T05:28:13.164Z,19.82
2019-05-23T05:30:44.654Z,20.36
2019-05-23T05:33:15.683Z,21.15
2019-05-23T05:35:46.839Z,21.27
2019-05-23T05:38:18.344Z,21.52
2019-05-23T05:40:49.900Z,21.74
2019-05-23T05:43:21.705Z,21.15
2019-05-23T05:45:52.601Z,20.10
2019-05-23T05:48:24.015Z,20.08
2019-05-23T05:50:55.365Z,19.97
2019-05-23T05:53:26.323Z,20.39
2019-05-23T05:55:57.264Z,21.45
2019-05-23T05:58:28.605Z,21.98
2019-05-23T06:01:05.312Z,22.49
2019-05-23T06:03:37.092Z,21.62
2019-05-23T06:06:33.413Z,22.21
2019-05-23T06:09:14.014Z,21.95
2019-05-23T06:11:45.351Z,21.54
2019-05-23T06:14:16.624Z,22.32
2019-05-23T06:16:48.423Z,22.83
2019-05-23T06:19:19.947Z,23.32
2019-05-23T06:21:51.736Z,23.87
2019-05-23T06:24:41.771Z,24.27
2019-05-23T06:26:56.563Z,24.72
2019-05-23T06:29:28.103Z,24.60
2019-05-23T06:31:59.455Z,25.36
2019-05-23T06:34:30.988Z,24.82
2019-05-23T06:37:02.725Z,23.75
2019-05-23T06:39:34.074Z,23.58
2019-05-23T06:42:05.598Z,23.57
2019-05-23T06:44:37.350Z,24.30
2019-05-23T06:47:09.855Z,24.07
2019-05-23T06:49:41.614Z,23.83
2019-05-23T06:52:13.070Z,23.98
2019-05-23T06:54:44.481Z,24.18
2019-05-23T06:57:15.264Z,24.64
2019-05-23T06:59:46.299Z,24.24
2019-05-23T07:02:17.693Z,23.36
2019-05-23T07:04:49.236Z,23.96
2019-05-23T07:07:20.905Z,24.15
2019-05-23T07:09:52.039Z,23.81
2019-05-23T07:12:23.176Z,23.38
2019-05-23T07:14:54.138Z,23.71
2019-05-23T07:17:26.299Z,23.07
2019-05-23T07:19:57.592Z,23.40
2019-05-23T07:22:28.907Z,23.81
2019-05-23T07:25:00.169Z,24.28
2019-05-23T07:27:31.985Z,23.23
2019-05-23T07:30:04.278Z,23.19
2019-05-23T07:32:35.205Z,23.99
2019-05-23T07:35:06.666Z,23.35
2019-05-23T07:37:37.931Z,23.03
2019-05-23T07:40:09.363Z,23.26
2019-05-23T07:42:40.567Z,22.77
2019-05-23T07:45:17.886Z,23.04
2019-05-23T07:47:49.430Z,23.22
2019-05-23T07:50:21.918Z,22.97
2019-05-23T07:52:55.702Z,23.40
2019-05-23T07:55:32.535Z,24.23
2019-05-23T07:58:03.570Z,24.33
2019-05-23T08:00:37.537Z,24.42
2019-05-23T08:03:09.892Z,25.29
2019-05-23T08:05:40.730Z,25.42
2019-05-23T08:08:12.301Z,23.87
2019-05-23T08:10:43.170Z,23.84
2019-05-23T08:13:14.453Z,24.40
2019-05-23T08:15:46.678Z,24.71
2019-05-23T08:18:17.778Z,25.33
2019-05-23T08:20:48.937Z,25.33
2019-05-23T08:23:20.544Z,25.23
2019-05-23T08:25:51.874Z,25.82
2019-05-23T08:28:23.297Z,26.21
2019-05-23T08:30:54.818Z,26.44
2019-05-23T08:33:26.538Z,26.28
2019-05-23T08:35:59.247Z,25.92
2019-05-23T08:38:30.472Z,25.34
2019-05-23T08:41:02.402Z,24.19
2019-05-23T08:43:33.635Z,23.80
2019-05-23T08:46:04.923Z,23.58
2019-05-23T08:48:36.334Z,23.77
2019-05-23T08:51:07.452Z,23.81
2019-05-23T08:53:38.887Z,24.06
2019-05-23T08:56:18.536Z,24.28
2019-05-23T08:58:43.065Z,24.73
2019-05-23T09:01:14.210Z,24.89
2019-05-23T09:03:46.083Z,25.34
2019-05-23T09:06:17.090Z,25.64
2019-05-23T09:08:48.348Z,25.59
2019-05-23T09:11:20.238Z,25.59
2019-05-23T09:13:51.679Z,25.45
2019-05-23T09:16:23.179Z,25.57
2019-05-23T09:18:54.378Z,25.73
2019-05-23T09:21:28.473Z,25.98
2019-05-23T09:23:59.501Z,26.07
2019-05-23T09:26:30.632Z,26.01
2019-05-23T09:29:02.416Z,25.83
2019-05-23T09:31:33.871Z,25.21
2019-05-23T09:34:05.050Z,25.10
2019-05-23T09:36:35.978Z,25.44
2019-05-23T09:39:10.001Z,25.54
2019-05-23T09:41:41.722Z,26.04
2019-05-23T09:44:12.957Z,25.92
2019-05-23T09:46:44.416Z,25.72
2019-05-23T09:49:15.870Z,25.37
2019-05-23T09:51:48.378Z,25.56
2019-05-23T09:54:20.223Z,25.46
2019-05-23T09:56:51.670Z,25.63
2019-05-23T09:59:23.009Z,25.33
2019-05-23T10:01:54.558Z,25.62
2019-05-23T10:04:25.651Z,25.75
2019-05-23T10:06:56.644Z,26.11
2019-05-23T10:09:27.539Z,25.91
2019-05-23T10:11:58.707Z,26.22
2019-05-23T10:14:33.252Z,26.04
2019-05-23T10:17:04.542Z,26.04
2019-05-23T10:19:35.962Z,25.92
2019-05-23T10:22:07.457Z,26.06
2019-05-23T10:24:38.702Z,25.75
2019-05-23T10:27:11.494Z,25.48
2019-05-23T10:29:42.374Z,25.79
2019-05-23T10:32:13.999Z,25.62
2019-05-23T10:34:45.180Z,25.43
2019-05-23T10:37:19.887Z,25.82
2019-05-23T10:39:55.066Z,26.15
2019-05-23T10:42:28.101Z,25.96
2019-05-23T10:44:59.162Z,26.22
2019-05-23T10:47:30.536Z,26.56
2019-05-23T10:50:07.186Z,26.49
2019-05-23T10:52:34.618Z,26.36
2019-05-23T10:55:05.838Z,27.14
2019-05-23T10:57:37.038Z,27.25
2019-05-23T11:00:09.973Z,27.09
2019-05-23T11:02:41.287Z,26.77
2019-05-23T11:05:14.433Z,26.99
2019-05-23T11:07:45.529Z,27.24
2019-05-23T11:10:17.488Z,26.41
2019-05-23T11:12:49.254Z,26.61
2019-05-23T11:15:20.786Z,26.13
2019-05-23T11:17:53.698Z,26.52
2019-05-23T11:20:26.290Z,26.92
2019-05-23T11:22:57.711Z,26.78
2019-05-23T11:25:31.259Z,26.75
2019-05-23T11:28:02.949Z,26.90
2019-05-23T11:30:42.039Z,27.00
2019-05-23T11:33:14.561Z,26.84
2019-05-23T11:35:46.195Z,25.96
2019-05-23T11:38:18.022Z,25.53
2019-05-23T11:40:49.320Z,25.47
2019-05-23T11:43:20.437Z,25.51
2019-05-23T11:45:59.858Z,25.62
2019-05-23T11:48:32.168Z,25.20
2019-05-23T11:51:03.612Z,24.96
2019-05-23T11:53:35.740Z,24.87
2019-05-23T11:56:07.202Z,24.95
2019-05-23T11:58:38.941Z,24.70
2019-05-23T12:01:28.528Z,24.57
2019-05-23T12:04:20.411Z,24.95
2019-05-23T12:07:22.781Z,24.91
2019-05-23T12:09:54.071Z,25.08
2019-05-23T12:12:25.731Z,25.18
2019-05-23T12:14:58.031Z,24.88
2019-05-23T12:17:31.625Z,25.10
2019-05-23T12:20:03.398Z,24.89
2019-05-23T12:22:36.009Z,24.52
2019-05-23T12:25:20.698Z,24.81
2019-05-23T12:27:42.208Z,24.55
2019-05-23T12:30:16.892Z,24.49
2019-05-23T12:32:48.172Z,24.40
2019-05-23T12:35:19.439Z,24.70
2019-05-23T12:37:50.653Z,24.98
2019-05-23T12:40:22.234Z,24.91
2019-05-23T12:42:53.696Z,24.68
2019-05-23T12:45:25.056Z,24.89
2019-05-23T12:48:03.802Z,24.56
2019-05-23T12:50:40.135Z,24.54
2019-05-23T12:53:12.490Z,24.25
2019-05-23T12:55:43.677Z,24.21
2019-05-23T12:58:14.754Z,24.04
2019-05-23T13:00:49.108Z,24.22
2019-05-23T13:03:20.556Z,24.00
2019-05-23T13:05:51.624Z,23.90
2019-05-23T13:08:23.168Z,23.90
2019-05-23T13:10:54.585Z,23.98
2019-05-23T13:13:25.835Z,23.85
2019-05-23T13:15:56.916Z,23.68
2019-05-23T13:18:28.092Z,23.43
2019-05-23T13:20:59.827Z,23.19
2019-05-23T13:23:31.556Z,23.31
2019-05-23T13:26:03.318Z,23.26
2019-05-23T13:28:34.574Z,23.40
2019-05-23T13:33:36.184Z,23.31
2019-05-23T13:36:07.959Z,23.23
2019-05-23T13:38:39.529Z,23.27
2019-05-23T13:41:11.169Z,23.22
2019-05-23T13:43:42.297Z,23.16
2019-05-23T13:46:14.587Z,23.25
2019-05-23T13:48:45.507Z,23.21
2019-05-23T13:51:16.643Z,23.20
2019-05-23T13:53:47.626Z,23.24
2019-05-23T13:56:19.700Z,23.06
2019-05-23T13:58:50.874Z,23.20
2019-05-23T14:01:21.764Z,23.36
2019-05-23T14:03:53.130Z,23.26
2019-05-23T14:06:24.229Z,23.25
2019-05-23T14:08:55.225Z,23.29
2019-05-23T14:11:26.641Z,23.32
2019-05-23T14:14:00.409Z,23.36
2019-05-23T14:16:32.645Z,23.53
2019-05-23T14:19:04.225Z,23.59
2019-05-23T14:21:36.502Z,23.55
2019-05-23T14:24:08.385Z,23.58
2019-05-23T14:26:46.224Z,23.70
2019-05-23T14:29:17.279Z,23.72
2019-05-23T14:31:57.255Z,23.38
2019-05-23T14:34:28.180Z,23.12
2019-05-23T14:37:08.257Z,23.14
2019-05-23T14:39:42.661Z,23.07
2019-05-23T14:42:40.412Z,22.97
2019-05-23T14:45:29.831Z,22.92
2019-05-23T14:48:12.216Z,23.16
2019-05-23T14:50:59.358Z,23.17
2019-05-23T14:53:33.222Z,23.00
2019-05-23T14:56:04.300Z,23.04
2019-05-23T14:58:36.176Z,22.95
2019-05-23T15:01:08.943Z,23.07
2019-05-23T15:03:39.948Z,23.11
2019-05-23T15:06:11.990Z,22.98
2019-05-23T15:08:51.087Z,22.81
2019-05-23T15:11:16.613Z,22.80
2019-05-23T15:13:47.721Z,22.71
2019-05-23T15:16:20.196Z,22.71
2019-05-23T15:18:51.911Z,22.80
2019-05-23T15:21:23.039Z,22.78
2019-05-23T15:23:54.104Z,22.83
2019-05-23T15:26:25.418Z,22.78
2019-05-23T15:28:56.259Z,22.60
2019-05-23T15:31:27.992Z,22.45
2019-05-23T15:33:59.103Z,22.39
2019-05-23T15:36:29.942Z,22.30
2019-05-23T15:39:09.413Z,22.22
2019-05-23T15:41:34.213Z,22.29
2019-05-23T15:44:22.505Z,22.30
2019-05-23T15:46:38.609Z,22.27
2019-05-23T15:49:11.897Z,21.95
2019-05-23T15:51:54.320Z,21.97
2019-05-23T15:54:33.383Z,21.97
2019-05-23T15:57:29.834Z,21.99
2019-05-23T16:00:14.831Z,21.95
2019-05-23T16:02:53.912Z,21.92
2019-05-23T16:05:24.857Z,21.93
2019-05-23T16:07:56.056Z,21.64
2019-05-23T16:10:28.667Z,21.72
2019-05-23T16:12:59.976Z,21.50
2019-05-23T16:15:31.432Z,21.55
2019-05-23T16:18:02.957Z,21.51
2019-05-23T16:20:34.256Z,21.54
2019-05-23T16:23:05.093Z,21.51
2019-05-23T16:25:36.191Z,21.32
2019-05-23T16:28:07.576Z,21.17
2019-05-23T16:30:39.265Z,21.06
2019-05-23T16:33:10.555Z,21.14
2019-05-23T16:35:41.596Z,21.10
2019-05-23T16:38:12.728Z,20.94
2019-05-23T16:40:43.595Z,21.01
2019-05-23T16:43:15.228Z,21.14
2019-05-23T16:45:46.814Z,21.01
2019-05-23T16:48:19.009Z,20.75
2019-05-23T16:50:50.985Z,20.76
2019-05-23T16:53:22.151Z,20.64
2019-05-23T16:56:02.006Z,20.55
2019-05-23T16:59:04.393Z,20.63
2019-05-23T17:01:57.823Z,20.58
2019-05-23T17:04:44.789Z,20.59
2019-05-23T17:07:33.261Z,20.39
2019-05-23T17:10:10.378Z,20.29
2019-05-23T17:13:18.530Z,20.20
2019-05-23T17:16:17.310Z,20.15
2019-05-23T17:19:12.802Z,20.05
2019-05-23T17:21:53.736Z,19.87
2019-05-23T17:24:46.767Z,19.63
2019-05-23T17:27:39.647Z,19.70
2019-05-23T17:30:18.643Z,19.56
2019-05-23T17:32:49.735Z,19.65
2019-05-23T17:35:21.089Z,19.71
2019-05-23T17:37:52.288Z,19.58
2019-05-23T17:40:25.616Z,19.59
2019-05-23T17:42:57.030Z,19.51
2019-05-23T17:45:28.439Z,19.47
2019-05-23T17:47:59.771Z,19.45
2019-05-23T17:50:34.703Z,19.27
2019-05-23T17:53:05.126Z,19.36
2019-05-23T17:55:36.394Z,19.35
2019-05-23T17:58:07.270Z,19.36
2019-05-23T18:00:42.126Z,19.22
2019-05-23T18:03:14.299Z,19.22
2019-05-23T18:05:45.390Z,19.16
2019-05-23T18:08:17.593Z,19.17
2019-05-23T18:10:48.757Z,19.05
2019-05-23T18:13:20.759Z,19.08
2019-05-23T18:15:52.138Z,19.11
2019-05-23T18:18:23.834Z,18.99
2019-05-23T18:20:55.470Z,18.97
2019-05-23T18:23:26.344Z,18.93
2019-05-23T18:25:57.398Z,18.87
2019-05-23T18:28:28.738Z,18.77
2019-05-23T18:31:08.237Z,18.80
2019-05-23T18:33:37.939Z,18.82
2019-05-23T18:36:09.156Z,18.77
2019-05-23T18:38:40.720Z,18.77
2019-05-23T18:41:12.211Z,18.78
2019-05-23T18:43:43.381Z,18.77
2019-05-23T18:46:22.602Z,18.63
2019-05-23T18:48:54.569Z,18.58
2019-05-23T18:51:25.730Z,18.48
2019-05-23T18:53:56.677Z,18.40
2019-05-23T18:56:27.805Z,18.46
2019-05-23T18:58:59.740Z,18.38
2019-05-23T19:01:32.776Z,18.31
2019-05-23T19:04:03.754Z,18.29
2019-05-23T19:06:35.899Z,18.30
2019-05-23T19:09:11.706Z,18.35
2019-05-23T19:11:43.043Z,18.24
2019-05-23T19:14:14.302Z,18.18
2019-05-23T19:16:45.389Z,18.08
2019-05-23T19:19:16.674Z,18.03
2019-05-23T19:21:49.360Z,18.03
2019-05-23T19:24:20.907Z,17.90
2019-05-23T19:26:52.923Z,17.87
2019-05-23T19:29:24.646Z,17.92
2019-05-23T19:31:55.726Z,17.81
2019-05-23T19:36:57.204Z,17.61
2019-05-23T19:39:28.674Z,17.50
2019-05-23T19:42:00.067Z,17.43
2019-05-23T19:44:31.196Z,17.35
2019-05-23T19:47:04.297Z,17.23
2019-05-23T19:49:35.290Z,17.15
2019-05-23T19:52:06.834Z,17.07
2019-05-23T19:54:38.023Z,16.91
2019-05-23T19:57:09.283Z,16.99
2019-05-23T19:59:40.150Z,17.03
2019-05-23T20:02:23.998Z,16.98
2019-05-23T20:05:07.049Z,16.93
2019-05-23T20:07:38.127Z,16.80
2019-05-23T20:10:12.961Z,16.72
2019-05-23T20:12:44.211Z,16.54
2019-05-23T20:15:15.705Z,16.59
2019-05-23T20:17:51.122Z,16.64
2019-05-23T20:20:19.854Z,16.53
2019-05-23T20:22:50.943Z,16.50
2019-05-23T20:25:23.061Z,16.51
2019-05-23T20:27:54.091Z,16.46
2019-05-23T20:30:59.684Z,16.47
2019-05-23T20:33:30.891Z,16.44
2019-05-23T20:36:04.569Z,16.49
2019-05-23T20:38:35.951Z,16.52
2019-05-23T20:41:09.628Z,16.41
2019-05-23T20:43:41.216Z,16.40
2019-05-23T20:46:12.437Z,16.42
2019-05-23T20:48:43.704Z,16.35
2019-05-23T20:51:15.681Z,16.43
2019-05-23T20:53:46.694Z,16.42
2019-05-23T20:56:18.036Z,16.40
2019-05-23T20:58:49.229Z,16.33
2019-05-23T21:01:28.375Z,16.34
2019-05-23T21:03:59.651Z,16.32
2019-05-23T21:06:30.937Z,16.21
2019-05-23T21:09:02.130Z,16.17
2019-05-23T21:11:33.773Z,16.02
2019-05-23T21:14:05.061Z,15.96
2019-05-23T21:16:36.223Z,15.97
2019-05-23T21:19:07.356Z,15.89
2019-05-23T21:21:38.283Z,15.88
2019-05-23T21:24:09.610Z,15.86
2019-05-23T21:26:40.722Z,15.86
2019-05-23T21:29:11.529Z,15.86
2019-05-23T21:31:42.649Z,15.86
2019-05-23T21:34:13.450Z,15.69
2019-05-23T21:36:44.684Z,15.73
2019-05-23T21:39:17.446Z,15.73
2019-05-23T21:41:48.528Z,15.59
2019-05-23T21:44:20.046Z,15.43
2019-05-23T21:46:51.575Z,15.56
2019-05-23T21:49:22.941Z,15.55
2019-05-23T21:51:54.198Z,15.34
2019-05-23T21:54:25.403Z,15.34
2019-05-23T21:56:57.468Z,15.28
2019-05-23T21:59:28.776Z,15.17
2019-05-23T22:02:18.157Z,15.20
2019-05-23T22:05:13.977Z,15.05
2019-05-23T22:07:45.638Z,15.03
2019-05-23T22:10:17.171Z,14.76
2019-05-23T22:13:03.429Z,14.76
2019-05-23T22:15:37.632Z,14.82
2019-05-23T22:18:09.019Z,14.84
2019-05-23T22:20:40.530Z,14.74
2019-05-23T22:23:12.692Z,14.81
2019-05-23T22:25:43.993Z,14.77
2019-05-23T22:28:15.167Z,14.77
2019-05-23T22:30:46.190Z,14.72
2019-05-23T22:33:19.023Z,14.81
2019-05-23T22:35:50.104Z,14.82
2019-05-23T22:38:21.000Z,14.81
2019-05-23T22:40:52.021Z,14.82
2019-05-23T22:43:23.315Z,14.82
2019-05-23T22:45:54.345Z,14.80
2019-05-23T22:48:25.140Z,14.80
2019-05-23T22:50:56.022Z,14.81
2019-05-23T22:53:26.880Z,14.76
2019-05-23T22:55:57.828Z,14.89
2019-05-23T22:58:28.665Z,14.86
2019-05-23T23:00:59.844Z,14.76
2019-05-23T23:03:30.660Z,14.70
2019-05-23T23:06:02.754Z,14.74
2019-05-23T23:08:34.282Z,14.65
2019-05-23T23:11:05.407Z,14.75
2019-05-23T23:13:39.001Z,14.66
2019-05-23T23:16:09.497Z,14.52
2019-05-23T23:18:40.555Z,14.38
2019-05-23T23:21:12.535Z,14.35
2019-05-23T23:23:43.676Z,14.26
2019-05-23T23:26:14.561Z,14.24
2019-05-23T23:28:45.769Z,14.24
2019-05-23T23:31:17.245Z,14.28
2019-05-23T23:33:48.219Z,14.34
2019-05-23T23:36:19.276Z,14.40
2019-05-23T23:38:50.243Z,14.46
2019-05-23T23:41:21.232Z,14.44
2019-05-23T23:43:59.468Z,14.44
2019-05-23T23:46:42.519Z,14.37
2019-05-23T23:49:31.142Z,14.33
2019-05-23T23:52:19.402Z,14.27
2019-05-23T23:55:08.557Z,14.13
2019-05-23T23:57:56.944Z,14.13
